sensor_id;sensor_type;location;lat;lon;timestamp;temperature;humidity
9941;DHT22;5009;50.656;7.188;2024-03-08T05:01:25;3.30;92.40
9941;DHT22;5009;50.656;7.188;2024-03-08T05:03:51;3.30;92.50
9941;DHT22;5009;50.656;7.188;2024-03-08T05:06:19;3.20;92.60
9941;DHT22;5009;50.656;7.188;2024-03-08T05:08:46;3.20;92.80
9941;DHT22;5009;50.656;7.188;2024-03-08T05:12:43;3.20;92.50
9941;DHT22;5009;50.656;7.188;2024-03-08T05:15:08;3.20;92.80
9941;DHT22;5009;50.656;7.188;2024-03-08T05:17:34;3.20;92.80
9941;DHT22;5009;50.656;7.188;2024-03-08T05:19:59;3.20;92.90
9941;DHT22;5009;50.656;7.188;2024-03-08T05:22:25;3.20;93.00
9941;DHT22;5009;50.656;7.188;2024-03-08T05:24:51;3.20;93.10
9941;DHT22;5009;50.656;7.188;2024-03-08T05:27:17;3.10;93.10
9941;DHT22;5009;50.656;7.188;2024-03-08T05:29:42;3.10;93.20
9941;DHT22;5009;50.656;7.188;2024-03-08T05:32:08;3.10;93.40
9941;DHT22;5009;50.656;7.188;2024-03-08T05:34:35;3.10;93.50
9941;DHT22;5009;50.656;7.188;2024-03-08T05:37:01;3.10;93.40
9941;DHT22;5009;50.656;7.188;2024-03-08T05:39:27;3.00;93.50
9941;DHT22;5009;50.656;7.188;2024-03-08T05:41:52;3.00;93.70
9941;DHT22;5009;50.656;7.188;2024-03-08T05:44:18;3.00;93.80
9941;DHT22;5009;50.656;7.188;2024-03-08T05:46:44;3.00;93.90
9941;DHT22;5009;50.656;7.188;2024-03-08T05:49:09;3.00;93.90
9941;DHT22;5009;50.656;7.188;2024-03-08T05:51:36;3.00;94.00
9941;DHT22;5009;50.656;7.188;2024-03-08T05:54:13;3.00;94.20
9941;DHT22;5009;50.656;7.188;2024-03-08T05:56:39;3.00;94.10
9941;DHT22;5009;50.656;7.188;2024-03-08T05:59:07;3.00;94.30
9941;DHT22;5009;50.656;7.188;2024-03-08T06:01:33;3.00;94.30
9941;DHT22;5009;50.656;7.188;2024-03-08T06:04:02;2.90;94.40
9941;DHT22;5009;50.656;7.188;2024-03-08T06:06:27;3.00;94.50
9941;DHT22;5009;50.656;7.188;2024-03-08T06:08:53;2.90;94.40
9941;DHT22;5009;50.656;7.188;2024-03-08T06:11:21;2.90;94.80
9941;DHT22;5009;50.656;7.188;2024-03-08T06:13:48;2.90;94.70
9941;DHT22;5009;50.656;7.188;2024-03-08T06:16:14;2.90;94.60
9941;DHT22;5009;50.656;7.188;2024-03-08T06:18:40;3.00;94.70
9941;DHT22;5009;50.656;7.188;2024-03-08T06:21:07;3.00;94.70
9941;DHT22;5009;50.656;7.188;2024-03-08T06:23:33;3.00;94.80
9941;DHT22;5009;50.656;7.188;2024-03-08T06:25:59;3.00;94.70
9941;DHT22;5009;50.656;7.188;2024-03-08T06:28:25;3.10;94.70
9941;DHT22;5009;50.656;7.188;2024-03-08T06:30:51;3.20;94.70
9941;DHT22;5009;50.656;7.188;2024-03-08T06:33:17;3.30;94.60
9941;DHT22;5009;50.656;7.188;2024-03-08T06:35:43;3.40;94.20
9941;DHT22;5009;50.656;7.188;2024-03-08T06:38:09;3.50;94.00
9941;DHT22;5009;50.656;7.188;2024-03-08T06:40:34;3.60;93.70
9941;DHT22;5009;50.656;7.188;2024-03-08T06:43:00;3.70;93.60
9941;DHT22;5009;50.656;7.188;2024-03-08T06:45:25;3.70;93.30
9941;DHT22;5009;50.656;7.188;2024-03-08T06:47:51;3.70;93.20
9941;DHT22;5009;50.656;7.188;2024-03-08T06:50:17;3.90;93.60
9941;DHT22;5009;50.656;7.188;2024-03-08T06:52:42;4.00;92.90
9941;DHT22;5009;50.656;7.188;2024-03-08T06:55:09;4.10;92.70
9941;DHT22;5009;50.656;7.188;2024-03-08T06:57:41;4.40;92.60
9941;DHT22;5009;50.656;7.188;2024-03-08T07:00:08;4.60;91.70
9941;DHT22;5009;50.656;7.188;2024-03-08T07:02:40;5.00;91.60
9941;DHT22;5009;50.656;7.188;2024-03-08T07:05:07;5.50;90.90
9941;DHT22;5009;50.656;7.188;2024-03-08T07:07:35;5.50;90.00
9941;DHT22;5009;50.656;7.188;2024-03-08T07:10:01;5.50;89.70
9941;DHT22;5009;50.656;7.188;2024-03-08T07:12:26;5.60;89.40
9941;DHT22;5009;50.656;7.188;2024-03-08T07:14:52;5.40;89.50
9941;DHT22;5009;50.656;7.188;2024-03-08T07:17:18;5.60;89.90
9941;DHT22;5009;50.656;7.188;2024-03-08T07:19:44;5.50;88.70
9941;DHT22;5009;50.656;7.188;2024-03-08T07:22:10;5.50;89.30
9941;DHT22;5009;50.656;7.188;2024-03-08T07:24:37;5.60;89.20
9941;DHT22;5009;50.656;7.188;2024-03-08T07:27:04;5.40;89.40
9941;DHT22;5009;50.656;7.188;2024-03-08T07:29:31;5.60;90.00
9941;DHT22;5009;50.656;7.188;2024-03-08T07:31:57;5.70;89.20
9941;DHT22;5009;50.656;7.188;2024-03-08T07:34:28;6.20;89.20
9941;DHT22;5009;50.656;7.188;2024-03-08T07:36:57;6.50;87.40
9941;DHT22;5009;50.656;7.188;2024-03-08T07:39:23;6.50;86.00
9941;DHT22;5009;50.656;7.188;2024-03-08T07:41:49;6.70;86.10
9941;DHT22;5009;50.656;7.188;2024-03-08T07:44:18;7.40;85.80
9941;DHT22;5009;50.656;7.188;2024-03-08T07:46:44;8.20;82.50
9941;DHT22;5009;50.656;7.188;2024-03-08T07:49:09;9.20;79.40
9941;DHT22;5009;50.656;7.188;2024-03-08T07:51:37;10.40;74.90
9941;DHT22;5009;50.656;7.188;2024-03-08T07:54:03;11.20;71.30
9941;DHT22;5009;50.656;7.188;2024-03-08T07:56:30;11.60;67.70
9941;DHT22;5009;50.656;7.188;2024-03-08T07:58:56;12.90;65.60
9941;DHT22;5009;50.656;7.188;2024-03-08T08:01:21;13.10;62.30
9941;DHT22;5009;50.656;7.188;2024-03-08T08:03:47;13.50;58.90
9941;DHT22;5009;50.656;7.188;2024-03-08T08:06:15;13.70;57.70
9941;DHT22;5009;50.656;7.188;2024-03-08T08:08:44;13.70;57.50
9941;DHT22;5009;50.656;7.188;2024-03-08T08:11:10;14.40;57.60
9941;DHT22;5009;50.656;7.188;2024-03-08T08:13:41;15.70;56.50
9941;DHT22;5009;50.656;7.188;2024-03-08T08:16:08;16.00;54.70
9941;DHT22;5009;50.656;7.188;2024-03-08T08:18:34;16.90;53.40
9941;DHT22;5009;50.656;7.188;2024-03-08T08:21:00;17.20;52.00
9941;DHT22;5009;50.656;7.188;2024-03-08T08:23:26;17.80;50.80
9941;DHT22;5009;50.656;7.188;2024-03-08T08:25:51;17.30;49.60
9941;DHT22;5009;50.656;7.188;2024-03-08T08:28:17;16.80;49.30
9941;DHT22;5009;50.656;7.188;2024-03-08T08:30:44;17.10;49.00
9941;DHT22;5009;50.656;7.188;2024-03-08T08:33:10;16.60;48.80
9941;DHT22;5009;50.656;7.188;2024-03-08T08:35:39;16.40;49.00
9941;DHT22;5009;50.656;7.188;2024-03-08T08:38:05;16.40;49.30
9941;DHT22;5009;50.656;7.188;2024-03-08T08:40:30;14.90;48.70
9941;DHT22;5009;50.656;7.188;2024-03-08T08:42:59;14.00;49.70
9941;DHT22;5009;50.656;7.188;2024-03-08T08:45:25;13.60;50.60
9941;DHT22;5009;50.656;7.188;2024-03-08T08:47:51;13.30;51.10
9941;DHT22;5009;50.656;7.188;2024-03-08T08:50:16;13.20;52.00
9941;DHT22;5009;50.656;7.188;2024-03-08T08:52:48;11.80;51.50
9941;DHT22;5009;50.656;7.188;2024-03-08T08:55:14;11.00;52.50
9941;DHT22;5009;50.656;7.188;2024-03-08T08:57:43;11.10;53.50
9941;DHT22;5009;50.656;7.188;2024-03-08T09:00:10;11.10;53.80
9941;DHT22;5009;50.656;7.188;2024-03-08T09:02:41;11.20;54.40
9941;DHT22;5009;50.656;7.188;2024-03-08T09:05:07;11.30;54.20
9941;DHT22;5009;50.656;7.188;2024-03-08T09:07:35;11.50;54.70
9941;DHT22;5009;50.656;7.188;2024-03-08T09:10:00;11.20;54.10
9941;DHT22;5009;50.656;7.188;2024-03-08T09:12:26;10.90;54.40
9941;DHT22;5009;50.656;7.188;2024-03-08T09:14:52;11.10;55.10
9941;DHT22;5009;50.656;7.188;2024-03-08T09:17:17;10.90;54.70
9941;DHT22;5009;50.656;7.188;2024-03-08T09:19:46;10.80;55.10
9941;DHT22;5009;50.656;7.188;2024-03-08T09:22:13;10.50;54.60
9941;DHT22;5009;50.656;7.188;2024-03-08T09:24:38;10.40;54.50
9941;DHT22;5009;50.656;7.188;2024-03-08T09:27:04;10.30;55.40
9941;DHT22;5009;50.656;7.188;2024-03-08T09:29:30;10.30;55.40
9941;DHT22;5009;50.656;7.188;2024-03-08T09:31:55;10.10;55.30
9941;DHT22;5009;50.656;7.188;2024-03-08T09:34:21;10.20;55.60
9941;DHT22;5009;50.656;7.188;2024-03-08T09:36:47;10.50;56.20
9941;DHT22;5009;50.656;7.188;2024-03-08T09:39:12;10.40;55.60
9941;DHT22;5009;50.656;7.188;2024-03-08T09:41:43;10.40;55.70
9941;DHT22;5009;50.656;7.188;2024-03-08T09:44:09;10.30;55.50
9941;DHT22;5009;50.656;7.188;2024-03-08T09:46:35;10.30;55.80
9941;DHT22;5009;50.656;7.188;2024-03-08T09:49:00;10.20;56.10
9941;DHT22;5009;50.656;7.188;2024-03-08T09:51:31;10.10;56.30
9941;DHT22;5009;50.656;7.188;2024-03-08T09:53:58;10.00;55.60
9941;DHT22;5009;50.656;7.188;2024-03-08T09:56:25;10.00;55.80
9941;DHT22;5009;50.656;7.188;2024-03-08T09:58:53;9.90;56.80
9941;DHT22;5009;50.656;7.188;2024-03-08T10:01:38;10.00;56.50
9941;DHT22;5009;50.656;7.188;2024-03-08T10:04:04;9.90;57.20
9941;DHT22;5009;50.656;7.188;2024-03-08T10:06:30;10.00;56.90
9941;DHT22;5009;50.656;7.188;2024-03-08T10:08:59;10.00;56.50
9941;DHT22;5009;50.656;7.188;2024-03-08T10:11:26;10.00;56.40
9941;DHT22;5009;50.656;7.188;2024-03-08T10:13:52;9.80;57.10
9941;DHT22;5009;50.656;7.188;2024-03-08T10:16:18;9.60;57.00
9941;DHT22;5009;50.656;7.188;2024-03-08T10:18:45;9.60;57.10
9941;DHT22;5009;50.656;7.188;2024-03-08T10:21:11;9.70;57.50
9941;DHT22;5009;50.656;7.188;2024-03-08T10:23:37;9.50;57.00
9941;DHT22;5009;50.656;7.188;2024-03-08T10:26:16;9.50;57.70
9941;DHT22;5009;50.656;7.188;2024-03-08T10:28:44;9.40;57.60
9941;DHT22;5009;50.656;7.188;2024-03-08T10:31:09;9.40;58.00
9941;DHT22;5009;50.656;7.188;2024-03-08T10:33:35;9.40;58.00
9941;DHT22;5009;50.656;7.188;2024-03-08T10:36:03;9.20;57.80
9941;DHT22;5009;50.656;7.188;2024-03-08T10:38:31;9.20;57.90
9941;DHT22;5009;50.656;7.188;2024-03-08T10:40:58;9.10;58.10
9941;DHT22;5009;50.656;7.188;2024-03-08T10:43:25;9.20;58.20
9941;DHT22;5009;50.656;7.188;2024-03-08T10:46:01;9.30;58.10
9941;DHT22;5009;50.656;7.188;2024-03-08T10:48:42;9.30;58.10
9941;DHT22;5009;50.656;7.188;2024-03-08T10:51:09;9.30;58.40
9941;DHT22;5009;50.656;7.188;2024-03-08T10:53:36;9.20;58.50
9941;DHT22;5009;50.656;7.188;2024-03-08T10:56:05;9.30;58.60
9941;DHT22;5009;50.656;7.188;2024-03-08T10:58:30;9.20;58.40
9941;DHT22;5009;50.656;7.188;2024-03-08T11:00:57;9.20;58.60
9941;DHT22;5009;50.656;7.188;2024-03-08T11:09:03;9.30;58.40
9941;DHT22;5009;50.656;7.188;2024-03-08T11:11:33;9.40;58.70
9941;DHT22;5009;50.656;7.188;2024-03-08T11:14:00;9.50;59.00
9941;DHT22;5009;50.656;7.188;2024-03-08T11:21:57;9.40;58.00
9941;DHT22;5009;50.656;7.188;2024-03-08T11:24:23;9.40;58.20
9941;DHT22;5009;50.656;7.188;2024-03-08T11:26:49;9.60;58.40
9941;DHT22;5009;50.656;7.188;2024-03-08T11:32:12;9.50;58.00
9941;DHT22;5009;50.656;7.188;2024-03-08T11:34:40;9.50;58.10
9941;DHT22;5009;50.656;7.188;2024-03-08T11:37:18;9.60;58.20
9941;DHT22;5009;50.656;7.188;2024-03-08T11:39:50;9.70;57.70
9941;DHT22;5009;50.656;7.188;2024-03-08T11:42:17;9.60;57.50
9941;DHT22;5009;50.656;7.188;2024-03-08T11:44:43;9.60;57.40
9941;DHT22;5009;50.656;7.188;2024-03-08T11:47:10;9.60;57.70
9941;DHT22;5009;50.656;7.188;2024-03-08T11:49:37;9.70;58.10
9941;DHT22;5009;50.656;7.188;2024-03-08T11:52:04;9.70;57.80
9941;DHT22;5009;50.656;7.188;2024-03-08T11:54:29;9.70;57.70
9941;DHT22;5009;50.656;7.188;2024-03-08T11:56:56;9.80;57.50
9941;DHT22;5009;50.656;7.188;2024-03-08T11:59:27;9.80;56.70
9941;DHT22;5009;50.656;7.188;2024-03-08T12:02:06;9.80;56.90
9941;DHT22;5009;50.656;7.188;2024-03-08T12:04:32;9.90;57.10
9941;DHT22;5009;50.656;7.188;2024-03-08T12:07:02;10.00;56.50
9941;DHT22;5009;50.656;7.188;2024-03-08T12:09:28;10.10;56.70
9941;DHT22;5009;50.656;7.188;2024-03-08T12:11:54;10.10;56.40
9941;DHT22;5009;50.656;7.188;2024-03-08T12:14:20;10.10;56.40
9941;DHT22;5009;50.656;7.188;2024-03-08T12:16:46;10.10;56.20
9941;DHT22;5009;50.656;7.188;2024-03-08T12:19:12;10.00;55.90
9941;DHT22;5009;50.656;7.188;2024-03-08T12:21:38;10.00;56.70
9941;DHT22;5009;50.656;7.188;2024-03-08T12:24:11;10.10;56.50
9941;DHT22;5009;50.656;7.188;2024-03-08T12:26:41;10.20;56.60
9941;DHT22;5009;50.656;7.188;2024-03-08T12:29:26;10.10;56.10
9941;DHT22;5009;50.656;7.188;2024-03-08T12:31:58;10.20;55.90
9941;DHT22;5009;50.656;7.188;2024-03-08T12:34:26;10.20;55.90
9941;DHT22;5009;50.656;7.188;2024-03-08T12:36:52;10.20;56.00
9941;DHT22;5009;50.656;7.188;2024-03-08T12:39:20;10.20;56.20
9941;DHT22;5009;50.656;7.188;2024-03-08T12:41:48;10.30;56.20
9941;DHT22;5009;50.656;7.188;2024-03-08T12:44:15;10.30;56.30
9941;DHT22;5009;50.656;7.188;2024-03-08T12:46:40;10.30;56.10
9941;DHT22;5009;50.656;7.188;2024-03-08T12:49:09;10.40;56.40
9941;DHT22;5009;50.656;7.188;2024-03-08T12:51:35;10.40;56.20
9941;DHT22;5009;50.656;7.188;2024-03-08T12:54:02;10.40;56.00
9941;DHT22;5009;50.656;7.188;2024-03-08T12:56:35;10.50;56.30
9941;DHT22;5009;50.656;7.188;2024-03-08T12:59:06;10.50;55.90
9941;DHT22;5009;50.656;7.188;2024-03-08T13:01:33;10.50;56.10
9941;DHT22;5009;50.656;7.188;2024-03-08T13:03:59;10.50;55.90
9941;DHT22;5009;50.656;7.188;2024-03-08T13:06:27;10.50;56.00
9941;DHT22;5009;50.656;7.188;2024-03-08T13:08:54;10.60;56.00
9941;DHT22;5009;50.656;7.188;2024-03-08T13:11:21;10.70;56.30
9941;DHT22;5009;50.656;7.188;2024-03-08T13:13:47;10.70;55.70
9941;DHT22;5009;50.656;7.188;2024-03-08T13:16:13;10.70;55.70
9941;DHT22;5009;50.656;7.188;2024-03-08T13:18:42;10.70;55.90
9941;DHT22;5009;50.656;7.188;2024-03-08T13:21:09;10.70;55.50
9941;DHT22;5009;50.656;7.188;2024-03-08T13:23:35;10.70;55.50
9941;DHT22;5009;50.656;7.188;2024-03-08T13:26:12;10.70;55.70
9941;DHT22;5009;50.656;7.188;2024-03-08T13:28:42;10.70;55.40
9941;DHT22;5009;50.656;7.188;2024-03-08T13:31:07;10.70;55.70
9941;DHT22;5009;50.656;7.188;2024-03-08T13:33:35;10.70;55.30
9941;DHT22;5009;50.656;7.188;2024-03-08T13:36:02;10.70;55.70
9941;DHT22;5009;50.656;7.188;2024-03-08T13:38:32;10.70;55.60
9941;DHT22;5009;50.656;7.188;2024-03-08T13:40:58;10.70;55.50
9941;DHT22;5009;50.656;7.188;2024-03-08T13:43:24;10.80;55.90
9941;DHT22;5009;50.656;7.188;2024-03-08T13:45:49;10.80;55.30
9941;DHT22;5009;50.656;7.188;2024-03-08T13:48:15;10.70;55.20
9941;DHT22;5009;50.656;7.188;2024-03-08T13:50:41;10.80;54.90
9941;DHT22;5009;50.656;7.188;2024-03-08T13:53:07;10.80;55.10
9941;DHT22;5009;50.656;7.188;2024-03-08T13:55:32;10.80;55.10
9941;DHT22;5009;50.656;7.188;2024-03-08T13:57:58;10.80;55.10
9941;DHT22;5009;50.656;7.188;2024-03-08T14:00:25;10.90;55.30
9941;DHT22;5009;50.656;7.188;2024-03-08T14:02:53;10.90;54.90
9941;DHT22;5009;50.656;7.188;2024-03-08T14:05:19;10.80;54.90
9941;DHT22;5009;50.656;7.188;2024-03-08T14:07:48;10.80;54.80
9941;DHT22;5009;50.656;7.188;2024-03-08T14:10:14;10.80;54.90
9941;DHT22;5009;50.656;7.188;2024-03-08T14:12:40;10.90;55.30
9941;DHT22;5009;50.656;7.188;2024-03-08T14:15:08;10.80;54.70
9941;DHT22;5009;50.656;7.188;2024-03-08T14:17:34;10.80;54.80
9941;DHT22;5009;50.656;7.188;2024-03-08T14:20:00;10.80;54.80
9941;DHT22;5009;50.656;7.188;2024-03-08T14:22:26;10.80;54.90
9941;DHT22;5009;50.656;7.188;2024-03-08T14:24:52;10.80;54.90
9941;DHT22;5009;50.656;7.188;2024-03-08T14:27:18;10.80;55.20
9941;DHT22;5009;50.656;7.188;2024-03-08T14:29:44;10.80;55.20
9941;DHT22;5009;50.656;7.188;2024-03-08T14:32:10;10.80;55.20
9941;DHT22;5009;50.656;7.188;2024-03-08T14:34:36;10.80;55.50
9941;DHT22;5009;50.656;7.188;2024-03-08T14:37:02;10.90;55.50
9941;DHT22;5009;50.656;7.188;2024-03-08T14:39:31;10.90;55.30
9941;DHT22;5009;50.656;7.188;2024-03-08T14:41:58;10.90;55.10
9941;DHT22;5009;50.656;7.188;2024-03-08T14:44:25;10.90;55.00
9941;DHT22;5009;50.656;7.188;2024-03-08T14:46:57;10.90;55.20
9941;DHT22;5009;50.656;7.188;2024-03-08T14:49:23;10.90;55.50
9941;DHT22;5009;50.656;7.188;2024-03-08T14:51:48;10.90;55.70
9941;DHT22;5009;50.656;7.188;2024-03-08T14:54:14;10.90;55.60
9941;DHT22;5009;50.656;7.188;2024-03-08T14:56:40;10.90;55.70
9941;DHT22;5009;50.656;7.188;2024-03-08T14:59:08;10.90;55.70
9941;DHT22;5009;50.656;7.188;2024-03-08T15:01:35;10.90;55.30
9941;DHT22;5009;50.656;7.188;2024-03-08T15:04:04;11.00;55.30
9941;DHT22;5009;50.656;7.188;2024-03-08T15:06:37;11.00;55.20
9941;DHT22;5009;50.656;7.188;2024-03-08T15:09:03;10.90;55.20
9941;DHT22;5009;50.656;7.188;2024-03-08T15:11:41;10.90;55.30
9941;DHT22;5009;50.656;7.188;2024-03-08T15:14:08;10.90;55.50
9941;DHT22;5009;50.656;7.188;2024-03-08T15:16:40;10.90;55.50
9941;DHT22;5009;50.656;7.188;2024-03-08T15:19:08;10.90;55.40
9941;DHT22;5009;50.656;7.188;2024-03-08T15:21:33;10.90;55.00
9941;DHT22;5009;50.656;7.188;2024-03-08T15:24:00;10.80;55.20
9941;DHT22;5009;50.656;7.188;2024-03-08T15:26:28;10.80;55.60
9941;DHT22;5009;50.656;7.188;2024-03-08T15:28:55;10.80;55.80
9941;DHT22;5009;50.656;7.188;2024-03-08T15:31:22;10.80;55.80
9941;DHT22;5009;50.656;7.188;2024-03-08T15:33:50;10.80;55.70
9941;DHT22;5009;50.656;7.188;2024-03-08T15:36:26;10.80;55.40
9941;DHT22;5009;50.656;7.188;2024-03-08T15:38:56;10.80;55.80
9941;DHT22;5009;50.656;7.188;2024-03-08T15:41:21;10.80;55.60
9941;DHT22;5009;50.656;7.188;2024-03-08T15:43:47;10.80;55.80
9941;DHT22;5009;50.656;7.188;2024-03-08T15:46:13;10.80;55.80
9941;DHT22;5009;50.656;7.188;2024-03-08T15:48:38;10.80;55.90
9941;DHT22;5009;50.656;7.188;2024-03-08T15:51:08;10.80;55.90
9941;DHT22;5009;50.656;7.188;2024-03-08T15:53:36;10.80;55.70
9941;DHT22;5009;50.656;7.188;2024-03-08T15:56:05;10.80;55.80
9941;DHT22;5009;50.656;7.188;2024-03-08T15:58:32;10.70;55.70
9941;DHT22;5009;50.656;7.188;2024-03-08T16:00:58;10.70;55.80
9941;DHT22;5009;50.656;7.188;2024-03-08T16:03:25;10.70;56.00
9941;DHT22;5009;50.656;7.188;2024-03-08T16:05:52;10.70;56.00
9941;DHT22;5009;50.656;7.188;2024-03-08T16:08:19;10.70;56.10
9941;DHT22;5009;50.656;7.188;2024-03-08T16:10:47;10.70;55.80
9941;DHT22;5009;50.656;7.188;2024-03-08T16:13:19;10.60;55.90
9941;DHT22;5009;50.656;7.188;2024-03-08T16:15:49;10.60;55.80
9941;DHT22;5009;50.656;7.188;2024-03-08T16:18:15;10.60;56.00
9941;DHT22;5009;50.656;7.188;2024-03-08T16:20:41;10.60;56.20
9941;DHT22;5009;50.656;7.188;2024-03-08T16:23:10;10.60;56.40
9941;DHT22;5009;50.656;7.188;2024-03-08T16:25:36;10.50;56.50
9941;DHT22;5009;50.656;7.188;2024-03-08T16:28:02;10.50;56.40
9941;DHT22;5009;50.656;7.188;2024-03-08T16:30:28;10.50;56.60
9941;DHT22;5009;50.656;7.188;2024-03-08T16:32:58;10.50;56.70
9941;DHT22;5009;50.656;7.188;2024-03-08T16:35:23;10.40;56.60
9941;DHT22;5009;50.656;7.188;2024-03-08T16:37:49;10.40;56.60
9941;DHT22;5009;50.656;7.188;2024-03-08T16:40:16;10.40;56.70
9941;DHT22;5009;50.656;7.188;2024-03-08T16:42:46;10.40;56.90
9941;DHT22;5009;50.656;7.188;2024-03-08T16:45:13;10.30;56.60
9941;DHT22;5009;50.656;7.188;2024-03-08T16:47:40;10.30;56.70
9941;DHT22;5009;50.656;7.188;2024-03-08T16:50:06;10.30;56.80
9941;DHT22;5009;50.656;7.188;2024-03-08T16:52:34;10.30;56.70
9941;DHT22;5009;50.656;7.188;2024-03-08T16:55:02;10.20;56.70
9941;DHT22;5009;50.656;7.188;2024-03-08T16:57:28;10.10;56.80
9941;DHT22;5009;50.656;7.188;2024-03-08T16:59:54;10.10;56.80
9941;DHT22;5009;50.656;7.188;2024-03-08T17:02:20;10.10;57.00
9941;DHT22;5009;50.656;7.188;2024-03-08T17:04:46;10.10;57.00
9941;DHT22;5009;50.656;7.188;2024-03-08T17:07:12;10.00;57.00
9941;DHT22;5009;50.656;7.188;2024-03-08T17:09:37;10.00;57.20
9941;DHT22;5009;50.656;7.188;2024-03-08T17:12:04;10.00;57.50
9941;DHT22;5009;50.656;7.188;2024-03-08T17:14:31;9.90;58.10
9941;DHT22;5009;50.656;7.188;2024-03-08T17:16:57;9.90;58.20
9941;DHT22;5009;50.656;7.188;2024-03-08T17:19:24;9.80;58.40
9941;DHT22;5009;50.656;7.188;2024-03-08T17:21:52;9.80;58.50
9941;DHT22;5009;50.656;7.188;2024-03-08T17:24:20;9.70;58.60
9941;DHT22;5009;50.656;7.188;2024-03-08T17:26:49;9.70;58.70
9941;DHT22;5009;50.656;7.188;2024-03-08T17:29:15;9.70;58.90
9941;DHT22;5009;50.656;7.188;2024-03-08T17:31:41;9.60;59.00
9941;DHT22;5009;50.656;7.188;2024-03-08T17:34:07;9.60;59.00
9941;DHT22;5009;50.656;7.188;2024-03-08T17:36:35;9.60;59.10
9941;DHT22;5009;50.656;7.188;2024-03-08T17:39:01;9.50;59.10
9941;DHT22;5009;50.656;7.188;2024-03-08T17:41:26;9.50;59.30
9941;DHT22;5009;50.656;7.188;2024-03-08T17:43:52;9.50;59.50
9941;DHT22;5009;50.656;7.188;2024-03-08T17:46:18;9.40;59.60
9941;DHT22;5009;50.656;7.188;2024-03-08T17:48:44;9.40;59.70
9941;DHT22;5009;50.656;7.188;2024-03-08T17:51:10;9.40;59.80
9941;DHT22;5009;50.656;7.188;2024-03-08T17:53:37;9.30;59.80
9941;DHT22;5009;50.656;7.188;2024-03-08T17:56:03;9.30;59.90
9941;DHT22;5009;50.656;7.188;2024-03-08T17:58:32;9.30;60.10
9941;DHT22;5009;50.656;7.188;2024-03-08T18:00:57;9.30;60.40
9941;DHT22;5009;50.656;7.188;2024-03-08T18:03:23;9.20;60.50
9941;DHT22;5009;50.656;7.188;2024-03-08T18:05:53;9.20;61.00
9941;DHT22;5009;50.656;7.188;2024-03-08T18:08:19;9.10;61.00
9941;DHT22;5009;50.656;7.188;2024-03-08T18:10:44;9.10;61.30
9941;DHT22;5009;50.656;7.188;2024-03-08T18:13:13;9.10;61.50
9941;DHT22;5009;50.656;7.188;2024-03-08T18:15:42;9.00;61.70
9941;DHT22;5009;50.656;7.188;2024-03-08T18:18:09;9.00;61.80
9941;DHT22;5009;50.656;7.188;2024-03-08T18:20:36;9.00;62.30
9941;DHT22;5009;50.656;7.188;2024-03-08T18:23:16;9.00;62.40
9941;DHT22;5009;50.656;7.188;2024-03-08T18:25:42;9.00;62.60
9941;DHT22;5009;50.656;7.188;2024-03-08T18:28:09;8.90;62.90
9941;DHT22;5009;50.656;7.188;2024-03-08T18:30:35;8.90;63.30
9941;DHT22;5009;50.656;7.188;2024-03-08T18:33:05;8.80;63.30
9941;DHT22;5009;50.656;7.188;2024-03-08T18:35:33;8.80;63.60
9941;DHT22;5009;50.656;7.188;2024-03-08T18:37:58;8.80;63.90
9941;DHT22;5009;50.656;7.188;2024-03-08T18:40:24;8.80;64.30
9941;DHT22;5009;50.656;7.188;2024-03-08T18:42:51;8.70;64.50
9941;DHT22;5009;50.656;7.188;2024-03-08T18:45:19;8.70;65.00
9941;DHT22;5009;50.656;7.188;2024-03-08T18:47:48;8.60;65.20
9941;DHT22;5009;50.656;7.188;2024-03-08T18:50:19;8.60;65.50
9941;DHT22;5009;50.656;7.188;2024-03-08T18:52:46;8.60;65.80
9941;DHT22;5009;50.656;7.188;2024-03-08T18:55:13;8.50;66.00
9941;DHT22;5009;50.656;7.188;2024-03-08T18:57:43;8.50;66.60
9941;DHT22;5009;50.656;7.188;2024-03-08T19:00:11;8.40;66.90
9941;DHT22;5009;50.656;7.188;2024-03-08T19:03:06;8.40;67.40
9941;DHT22;5009;50.656;7.188;2024-03-08T19:05:35;8.40;67.40
9941;DHT22;5009;50.656;7.188;2024-03-08T19:08:02;8.30;67.50
9941;DHT22;5009;50.656;7.188;2024-03-08T19:10:33;8.30;67.80
9941;DHT22;5009;50.656;7.188;2024-03-08T19:13:00;8.30;68.10
9941;DHT22;5009;50.656;7.188;2024-03-08T19:15:27;8.30;68.50
9941;DHT22;5009;50.656;7.188;2024-03-08T19:17:53;8.20;69.00
9941;DHT22;5009;50.656;7.188;2024-03-08T19:20:21;8.10;69.30
9941;DHT22;5009;50.656;7.188;2024-03-08T19:22:50;8.20;69.70
9941;DHT22;5009;50.656;7.188;2024-03-08T19:25:24;8.20;70.10
9941;DHT22;5009;50.656;7.188;2024-03-08T19:27:56;8.10;70.30
9941;DHT22;5009;50.656;7.188;2024-03-08T19:30:29;8.10;70.60
9941;DHT22;5009;50.656;7.188;2024-03-08T19:33:00;8.10;70.80
9941;DHT22;5009;50.656;7.188;2024-03-08T19:35:27;8.00;70.90
9941;DHT22;5009;50.656;7.188;2024-03-08T19:37:54;8.00;71.00
9941;DHT22;5009;50.656;7.188;2024-03-08T19:40:28;8.00;71.50
9941;DHT22;5009;50.656;7.188;2024-03-08T19:43:04;7.90;72.40
9941;DHT22;5009;50.656;7.188;2024-03-08T19:45:35;7.80;72.90
9941;DHT22;5009;50.656;7.188;2024-03-08T19:48:02;7.80;73.00
9941;DHT22;5009;50.656;7.188;2024-03-08T19:50:32;7.80;73.40
9941;DHT22;5009;50.656;7.188;2024-03-08T19:52:58;7.80;73.70
9941;DHT22;5009;50.656;7.188;2024-03-08T19:55:33;7.70;74.40
9941;DHT22;5009;50.656;7.188;2024-03-08T19:57:59;7.70;74.50
9941;DHT22;5009;50.656;7.188;2024-03-08T20:00:26;7.60;75.40
9941;DHT22;5009;50.656;7.188;2024-03-08T20:02:55;7.60;75.40
9941;DHT22;5009;50.656;7.188;2024-03-08T20:05:25;7.60;75.70
9941;DHT22;5009;50.656;7.188;2024-03-08T20:07:51;7.60;75.80
9941;DHT22;5009;50.656;7.188;2024-03-08T20:10:21;7.60;75.60
9941;DHT22;5009;50.656;7.188;2024-03-08T20:12:47;7.60;75.80
9941;DHT22;5009;50.656;7.188;2024-03-08T20:15:15;7.50;75.70
9941;DHT22;5009;50.656;7.188;2024-03-08T20:17:43;7.60;76.00
9941;DHT22;5009;50.656;7.188;2024-03-08T20:20:13;7.50;76.10
9941;DHT22;5009;50.656;7.188;2024-03-08T20:22:45;7.50;76.10
9941;DHT22;5009;50.656;7.188;2024-03-08T20:25:15;7.50;76.30
9941;DHT22;5009;50.656;7.188;2024-03-08T20:27:44;7.40;76.60
9941;DHT22;5009;50.656;7.188;2024-03-08T20:30:13;7.40;76.50
9941;DHT22;5009;50.656;7.188;2024-03-08T20:32:38;7.40;76.20
9941;DHT22;5009;50.656;7.188;2024-03-08T20:35:06;7.40;75.90
9941;DHT22;5009;50.656;7.188;2024-03-08T20:37:32;7.50;75.50
9941;DHT22;5009;50.656;7.188;2024-03-08T20:39:59;7.50;75.40
9941;DHT22;5009;50.656;7.188;2024-03-08T20:42:26;7.50;75.50
9941;DHT22;5009;50.656;7.188;2024-03-08T20:44:53;7.50;75.30
9941;DHT22;5009;50.656;7.188;2024-03-08T20:47:20;7.50;75.10
9941;DHT22;5009;50.656;7.188;2024-03-08T20:49:47;7.50;75.10
9941;DHT22;5009;50.656;7.188;2024-03-08T20:52:15;7.50;74.80
9941;DHT22;5009;50.656;7.188;2024-03-08T20:54:40;7.50;75.10
9941;DHT22;5009;50.656;7.188;2024-03-08T20:57:06;7.50;75.00
9941;DHT22;5009;50.656;7.188;2024-03-08T20:59:33;7.50;75.20
9941;DHT22;5009;50.656;7.188;2024-03-08T21:01:59;7.50;75.30
9941;DHT22;5009;50.656;7.188;2024-03-08T21:04:25;7.50;75.30
9941;DHT22;5009;50.656;7.188;2024-03-08T21:06:52;7.50;75.20
9941;DHT22;5009;50.656;7.188;2024-03-08T21:09:17;7.70;75.00
9941;DHT22;5009;50.656;7.188;2024-03-08T21:11:43;7.70;75.30
9941;DHT22;5009;50.656;7.188;2024-03-08T21:14:09;7.60;74.90
9941;DHT22;5009;50.656;7.188;2024-03-08T21:16:36;7.60;74.80
9941;DHT22;5009;50.656;7.188;2024-03-08T21:19:01;7.60;74.90
9941;DHT22;5009;50.656;7.188;2024-03-08T21:21:27;7.60;74.80
9941;DHT22;5009;50.656;7.188;2024-03-08T21:23:52;7.60;75.00
9941;DHT22;5009;50.656;7.188;2024-03-08T21:26:19;7.60;75.20